sensor_id;sensor_type;location;lat;lon;timestamp;temperature;humidity
48998;DHT22;34807;51.456;7.244;2022-08-19T00:01:23;21.90;76.60
48998;DHT22;34807;51.456;7.244;2022-08-19T00:03:49;21.90;76.60
48998;DHT22;34807;51.456;7.244;2022-08-19T00:06:15;21.90;76.90
48998;DHT22;34807;51.456;7.244;2022-08-19T00:08:41;21.80;77.10
48998;DHT22;34807;51.456;7.244;2022-08-19T00:11:06;21.80;77.00
48998;DHT22;34807;51.456;7.244;2022-08-19T00:13:32;21.80;76.60
48998;DHT22;34807;51.456;7.244;2022-08-19T00:15:58;21.80;76.80
48998;DHT22;34807;51.456;7.244;2022-08-19T00:18:26;21.80;76.70
48998;DHT22;34807;51.456;7.244;2022-08-19T00:20:51;21.70;77.00
48998;DHT22;34807;51.456;7.244;2022-08-19T00:23:17;21.70;77.30
48998;DHT22;34807;51.456;7.244;2022-08-19T00:25:42;21.70;77.00
48998;DHT22;34807;51.456;7.244;2022-08-19T00:28:08;21.70;77.50
48998;DHT22;34807;51.456;7.244;2022-08-19T00:30:33;21.70;77.50
48998;DHT22;34807;51.456;7.244;2022-08-19T00:32:59;21.70;77.20
48998;DHT22;34807;51.456;7.244;2022-08-19T00:35:25;21.70;77.50
48998;DHT22;34807;51.456;7.244;2022-08-19T00:37:52;21.60;77.40
48998;DHT22;34807;51.456;7.244;2022-08-19T00:40:18;21.60;77.50
48998;DHT22;34807;51.456;7.244;2022-08-19T00:42:44;21.60;77.50
48998;DHT22;34807;51.456;7.244;2022-08-19T00:45:14;21.60;78.00
48998;DHT22;34807;51.456;7.244;2022-08-19T00:47:42;21.50;77.80
48998;DHT22;34807;51.456;7.244;2022-08-19T00:50:08;21.50;78.00
48998;DHT22;34807;51.456;7.244;2022-08-19T00:52:34;21.50;78.40
48998;DHT22;34807;51.456;7.244;2022-08-19T00:55:02;21.50;77.90
48998;DHT22;34807;51.456;7.244;2022-08-19T00:57:30;21.50;78.00
48998;DHT22;34807;51.456;7.244;2022-08-19T00:59:58;21.40;77.70
48998;DHT22;34807;51.456;7.244;2022-08-19T01:02:24;21.40;78.00
48998;DHT22;34807;51.456;7.244;2022-08-19T01:04:51;21.40;79.00
48998;DHT22;34807;51.456;7.244;2022-08-19T01:07:16;21.40;78.90
48998;DHT22;34807;51.456;7.244;2022-08-19T01:09:42;21.40;79.40
48998;DHT22;34807;51.456;7.244;2022-08-19T01:12:08;21.30;79.50
48998;DHT22;34807;51.456;7.244;2022-08-19T01:14:34;21.30;79.10
48998;DHT22;34807;51.456;7.244;2022-08-19T01:17:00;21.30;79.20
48998;DHT22;34807;51.456;7.244;2022-08-19T01:19:28;21.30;79.40
48998;DHT22;34807;51.456;7.244;2022-08-19T01:21:55;21.30;79.80
48998;DHT22;34807;51.456;7.244;2022-08-19T01:24:22;21.30;80.00
48998;DHT22;34807;51.456;7.244;2022-08-19T01:26:48;21.20;80.00
48998;DHT22;34807;51.456;7.244;2022-08-19T01:29:14;21.20;80.20
48998;DHT22;34807;51.456;7.244;2022-08-19T01:31:39;21.20;80.10
48998;DHT22;34807;51.456;7.244;2022-08-19T01:34:05;21.20;80.20
48998;DHT22;34807;51.456;7.244;2022-08-19T01:36:41;21.20;80.20
48998;DHT22;34807;51.456;7.244;2022-08-19T01:39:11;21.10;80.30
48998;DHT22;34807;51.456;7.244;2022-08-19T01:41:37;21.10;80.30
48998;DHT22;34807;51.456;7.244;2022-08-19T01:44:03;21.10;80.40
48998;DHT22;34807;51.456;7.244;2022-08-19T01:46:30;21.10;80.60
48998;DHT22;34807;51.456;7.244;2022-08-19T01:48:55;21.10;80.50
48998;DHT22;34807;51.456;7.244;2022-08-19T01:51:21;21.10;80.50
48998;DHT22;34807;51.456;7.244;2022-08-19T01:53:50;21.00;80.20
48998;DHT22;34807;51.456;7.244;2022-08-19T01:56:16;21.00;80.60
48998;DHT22;34807;51.456;7.244;2022-08-19T01:58:44;21.00;80.50
48998;DHT22;34807;51.456;7.244;2022-08-19T02:01:11;21.00;80.60
48998;DHT22;34807;51.456;7.244;2022-08-19T02:03:37;21.00;80.70
48998;DHT22;34807;51.456;7.244;2022-08-19T02:06:03;21.00;80.60
48998;DHT22;34807;51.456;7.244;2022-08-19T02:08:30;21.00;80.60
48998;DHT22;34807;51.456;7.244;2022-08-19T02:10:56;20.90;80.60
48998;DHT22;34807;51.456;7.244;2022-08-19T02:13:22;20.90;80.70
48998;DHT22;34807;51.456;7.244;2022-08-19T02:15:47;20.90;80.70
48998;DHT22;34807;51.456;7.244;2022-08-19T02:18:13;20.90;80.70
48998;DHT22;34807;51.456;7.244;2022-08-19T02:20:39;20.90;80.80
48998;DHT22;34807;51.456;7.244;2022-08-19T02:23:06;20.90;80.60
48998;DHT22;34807;51.456;7.244;2022-08-19T02:25:32;20.90;80.80
48998;DHT22;34807;51.456;7.244;2022-08-19T02:27:57;20.80;80.80
48998;DHT22;34807;51.456;7.244;2022-08-19T02:30:23;20.80;80.80
48998;DHT22;34807;51.456;7.244;2022-08-19T02:32:49;20.80;80.80
48998;DHT22;34807;51.456;7.244;2022-08-19T02:35:15;20.80;80.90
48998;DHT22;34807;51.456;7.244;2022-08-19T02:37:41;20.80;80.80
48998;DHT22;34807;51.456;7.244;2022-08-19T02:40:26;20.70;80.90
48998;DHT22;34807;51.456;7.244;2022-08-19T02:42:51;20.70;80.80
48998;DHT22;34807;51.456;7.244;2022-08-19T02:45:17;20.70;80.80
48998;DHT22;34807;51.456;7.244;2022-08-19T02:47:42;20.70;80.90
48998;DHT22;34807;51.456;7.244;2022-08-19T02:50:08;20.70;80.90
48998;DHT22;34807;51.456;7.244;2022-08-19T02:52:34;20.70;81.00
48998;DHT22;34807;51.456;7.244;2022-08-19T02:55:00;20.70;81.00
48998;DHT22;34807;51.456;7.244;2022-08-19T02:57:26;20.70;81.00
48998;DHT22;34807;51.456;7.244;2022-08-19T02:59:52;20.70;81.00
48998;DHT22;34807;51.456;7.244;2022-08-19T03:02:17;20.60;81.00
48998;DHT22;34807;51.456;7.244;2022-08-19T03:04:43;20.60;81.00
48998;DHT22;34807;51.456;7.244;2022-08-19T03:07:09;20.60;81.20
48998;DHT22;34807;51.456;7.244;2022-08-19T03:09:36;20.60;81.10
48998;DHT22;34807;51.456;7.244;2022-08-19T03:12:02;20.60;81.10
48998;DHT22;34807;51.456;7.244;2022-08-19T03:14:30;20.60;81.20
48998;DHT22;34807;51.456;7.244;2022-08-19T03:16:55;20.50;81.10
48998;DHT22;34807;51.456;7.244;2022-08-19T03:19:21;20.50;81.20
48998;DHT22;34807;51.456;7.244;2022-08-19T03:21:46;20.50;81.20
48998;DHT22;34807;51.456;7.244;2022-08-19T03:24:12;20.50;81.10
48998;DHT22;34807;51.456;7.244;2022-08-19T03:26:43;20.50;81.20
48998;DHT22;34807;51.456;7.244;2022-08-19T03:29:09;20.50;81.20
48998;DHT22;34807;51.456;7.244;2022-08-19T03:31:36;20.50;81.20
48998;DHT22;34807;51.456;7.244;2022-08-19T03:34:02;20.50;81.00
48998;DHT22;34807;51.456;7.244;2022-08-19T03:36:27;20.50;81.40
48998;DHT22;34807;51.456;7.244;2022-08-19T03:38:55;20.50;81.20
48998;DHT22;34807;51.456;7.244;2022-08-19T03:41:23;20.40;81.30
48998;DHT22;34807;51.456;7.244;2022-08-19T03:43:49;20.50;81.40
48998;DHT22;34807;51.456;7.244;2022-08-19T03:46:16;20.50;81.40
48998;DHT22;34807;51.456;7.244;2022-08-19T03:48:42;20.40;81.40
48998;DHT22;34807;51.456;7.244;2022-08-19T03:51:08;20.40;81.50
48998;DHT22;34807;51.456;7.244;2022-08-19T03:53:40;20.40;81.60
48998;DHT22;34807;51.456;7.244;2022-08-19T03:56:08;20.40;81.60
48998;DHT22;34807;51.456;7.244;2022-08-19T03:58:33;20.40;81.60
48998;DHT22;34807;51.456;7.244;2022-08-19T04:00:59;20.40;81.60
48998;DHT22;34807;51.456;7.244;2022-08-19T04:03:25;20.40;81.60
48998;DHT22;34807;51.456;7.244;2022-08-19T04:05:52;20.40;81.70
48998;DHT22;34807;51.456;7.244;2022-08-19T04:08:18;20.40;81.70
48998;DHT22;34807;51.456;7.244;2022-08-19T04:10:46;20.30;81.70
48998;DHT22;34807;51.456;7.244;2022-08-19T04:13:11;20.30;81.60
48998;DHT22;34807;51.456;7.244;2022-08-19T04:15:41;20.30;81.70
48998;DHT22;34807;51.456;7.244;2022-08-19T04:18:10;20.30;81.60
48998;DHT22;34807;51.456;7.244;2022-08-19T04:20:40;20.30;81.70
48998;DHT22;34807;51.456;7.244;2022-08-19T04:23:05;20.30;81.70
48998;DHT22;34807;51.456;7.244;2022-08-19T04:25:35;20.30;81.80
48998;DHT22;34807;51.456;7.244;2022-08-19T04:28:00;20.30;81.90
48998;DHT22;34807;51.456;7.244;2022-08-19T04:30:26;20.30;81.90
48998;DHT22;34807;51.456;7.244;2022-08-19T04:32:51;20.20;81.70
48998;DHT22;34807;51.456;7.244;2022-08-19T04:35:17;20.20;81.90
48998;DHT22;34807;51.456;7.244;2022-08-19T04:37:42;20.20;81.50
48998;DHT22;34807;51.456;7.244;2022-08-19T04:40:08;20.20;81.80
48998;DHT22;34807;51.456;7.244;2022-08-19T04:42:52;20.20;81.80
48998;DHT22;34807;51.456;7.244;2022-08-19T04:45:18;20.20;81.80
48998;DHT22;34807;51.456;7.244;2022-08-19T04:47:44;20.20;81.70
48998;DHT22;34807;51.456;7.244;2022-08-19T04:50:10;20.20;81.90
48998;DHT22;34807;51.456;7.244;2022-08-19T04:52:36;20.20;81.80
48998;DHT22;34807;51.456;7.244;2022-08-19T04:55:02;20.20;81.80
48998;DHT22;34807;51.456;7.244;2022-08-19T04:57:28;20.20;81.80
48998;DHT22;34807;51.456;7.244;2022-08-19T04:59:54;20.20;81.80
48998;DHT22;34807;51.456;7.244;2022-08-19T05:02:20;20.20;81.40
48998;DHT22;34807;51.456;7.244;2022-08-19T05:04:48;20.20;81.30
48998;DHT22;34807;51.456;7.244;2022-08-19T05:07:13;20.20;81.30
48998;DHT22;34807;51.456;7.244;2022-08-19T05:09:39;20.20;81.40
48998;DHT22;34807;51.456;7.244;2022-08-19T05:12:04;20.20;81.20
48998;DHT22;34807;51.456;7.244;2022-08-19T05:14:31;20.20;81.30
48998;DHT22;34807;51.456;7.244;2022-08-19T05:16:56;20.20;81.30
48998;DHT22;34807;51.456;7.244;2022-08-19T05:19:22;20.20;81.20
48998;DHT22;34807;51.456;7.244;2022-08-19T05:22:06;20.20;81.20
48998;DHT22;34807;51.456;7.244;2022-08-19T05:24:50;20.20;81.00
48998;DHT22;34807;51.456;7.244;2022-08-19T05:27:16;20.20;81.00
48998;DHT22;34807;51.456;7.244;2022-08-19T05:29:41;20.20;81.00
48998;DHT22;34807;51.456;7.244;2022-08-19T05:32:07;20.20;80.90
48998;DHT22;34807;51.456;7.244;2022-08-19T05:34:36;20.30;81.00
48998;DHT22;34807;51.456;7.244;2022-08-19T05:37:03;20.20;80.90
48998;DHT22;34807;51.456;7.244;2022-08-19T05:39:30;20.20;80.90
48998;DHT22;34807;51.456;7.244;2022-08-19T05:41:57;20.20;80.90
48998;DHT22;34807;51.456;7.244;2022-08-19T05:44:31;20.20;80.90
48998;DHT22;34807;51.456;7.244;2022-08-19T05:46:57;20.20;80.90
48998;DHT22;34807;51.456;7.244;2022-08-19T05:49:23;20.20;80.90
48998;DHT22;34807;51.456;7.244;2022-08-19T05:51:50;20.30;81.00
48998;DHT22;34807;51.456;7.244;2022-08-19T05:54:17;20.30;81.10
48998;DHT22;34807;51.456;7.244;2022-08-19T05:56:42;20.30;81.00
48998;DHT22;34807;51.456;7.244;2022-08-19T05:59:09;20.30;81.00
48998;DHT22;34807;51.456;7.244;2022-08-19T06:01:37;20.30;81.00
48998;DHT22;34807;51.456;7.244;2022-08-19T06:04:03;20.30;80.90
48998;DHT22;34807;51.456;7.244;2022-08-19T06:06:29;20.30;81.00
48998;DHT22;34807;51.456;7.244;2022-08-19T06:08:54;20.30;81.00
48998;DHT22;34807;51.456;7.244;2022-08-19T06:13:46;20.30;80.80
48998;DHT22;34807;51.456;7.244;2022-08-19T06:16:15;20.30;80.90
48998;DHT22;34807;51.456;7.244;2022-08-19T06:18:54;20.40;80.90
48998;DHT22;34807;51.456;7.244;2022-08-19T06:21:24;20.40;80.80
48998;DHT22;34807;51.456;7.244;2022-08-19T06:23:51;20.40;80.80
48998;DHT22;34807;51.456;7.244;2022-08-19T06:26:17;20.40;80.70
48998;DHT22;34807;51.456;7.244;2022-08-19T06:28:44;20.40;80.60
48998;DHT22;34807;51.456;7.244;2022-08-19T06:31:12;20.40;80.60
48998;DHT22;34807;51.456;7.244;2022-08-19T06:33:39;20.40;80.60
48998;DHT22;34807;51.456;7.244;2022-08-19T06:36:04;20.40;80.70
48998;DHT22;34807;51.456;7.244;2022-08-19T06:38:31;20.50;80.40
48998;DHT22;34807;51.456;7.244;2022-08-19T06:41:03;20.40;80.50
48998;DHT22;34807;51.456;7.244;2022-08-19T06:43:29;20.50;80.60
48998;DHT22;34807;51.456;7.244;2022-08-19T06:45:55;20.50;80.40
48998;DHT22;34807;51.456;7.244;2022-08-19T06:48:20;20.50;80.30
48998;DHT22;34807;51.456;7.244;2022-08-19T06:50:46;20.50;80.20
48998;DHT22;34807;51.456;7.244;2022-08-19T06:53:12;20.60;80.20
48998;DHT22;34807;51.456;7.244;2022-08-19T06:55:38;20.50;80.30
48998;DHT22;34807;51.456;7.244;2022-08-19T06:58:04;20.60;80.10
48998;DHT22;34807;51.456;7.244;2022-08-19T07:00:31;20.60;80.10
48998;DHT22;34807;51.456;7.244;2022-08-19T07:02:57;20.60;80.10
48998;DHT22;34807;51.456;7.244;2022-08-19T07:05:23;20.60;79.90
48998;DHT22;34807;51.456;7.244;2022-08-19T07:07:49;20.60;79.90
48998;DHT22;34807;51.456;7.244;2022-08-19T07:10:15;20.60;79.80
48998;DHT22;34807;51.456;7.244;2022-08-19T07:12:40;20.70;80.10
48998;DHT22;34807;51.456;7.244;2022-08-19T07:15:06;20.70;79.80
48998;DHT22;34807;51.456;7.244;2022-08-19T07:17:34;20.70;80.60
48998;DHT22;34807;51.456;7.244;2022-08-19T07:20:02;20.70;80.40
48998;DHT22;34807;51.456;7.244;2022-08-19T07:22:28;20.70;79.90
48998;DHT22;34807;51.456;7.244;2022-08-19T07:24:53;20.70;79.50
48998;DHT22;34807;51.456;7.244;2022-08-19T07:27:19;20.80;79.70
48998;DHT22;34807;51.456;7.244;2022-08-19T07:29:44;20.80;79.60
48998;DHT22;34807;51.456;7.244;2022-08-19T07:32:11;20.80;79.60
48998;DHT22;34807;51.456;7.244;2022-08-19T07:34:36;20.90;79.70
48998;DHT22;34807;51.456;7.244;2022-08-19T07:37:06;20.90;79.40
48998;DHT22;34807;51.456;7.244;2022-08-19T07:39:33;20.90;79.30
48998;DHT22;34807;51.456;7.244;2022-08-19T07:41:59;20.90;79.20
48998;DHT22;34807;51.456;7.244;2022-08-19T07:44:26;20.90;79.40
48998;DHT22;34807;51.456;7.244;2022-08-19T07:46:53;21.00;79.50
48998;DHT22;34807;51.456;7.244;2022-08-19T07:49:19;21.00;79.40
48998;DHT22;34807;51.456;7.244;2022-08-19T07:51:49;21.00;79.20
48998;DHT22;34807;51.456;7.244;2022-08-19T07:54:16;21.10;79.30
48998;DHT22;34807;51.456;7.244;2022-08-19T07:56:41;21.10;79.70
48998;DHT22;34807;51.456;7.244;2022-08-19T07:59:07;21.10;79.20
48998;DHT22;34807;51.456;7.244;2022-08-19T08:01:34;21.10;78.90
48998;DHT22;34807;51.456;7.244;2022-08-19T08:04:00;21.20;78.90
48998;DHT22;34807;51.456;7.244;2022-08-19T08:06:44;21.20;79.00
48998;DHT22;34807;51.456;7.244;2022-08-19T08:09:29;21.20;78.90
48998;DHT22;34807;51.456;7.244;2022-08-19T08:11:58;21.20;79.00
48998;DHT22;34807;51.456;7.244;2022-08-19T08:14:28;21.30;79.00
48998;DHT22;34807;51.456;7.244;2022-08-19T08:16:54;21.30;78.70
48998;DHT22;34807;51.456;7.244;2022-08-19T08:19:21;21.30;78.60
48998;DHT22;34807;51.456;7.244;2022-08-19T08:21:47;21.40;79.10
48998;DHT22;34807;51.456;7.244;2022-08-19T08:24:13;21.40;78.60
48998;DHT22;34807;51.456;7.244;2022-08-19T08:26:39;21.40;78.90
48998;DHT22;34807;51.456;7.244;2022-08-19T08:29:04;21.50;78.40
48998;DHT22;34807;51.456;7.244;2022-08-19T08:31:30;21.50;78.60
48998;DHT22;34807;51.456;7.244;2022-08-19T08:33:56;21.60;78.60
48998;DHT22;34807;51.456;7.244;2022-08-19T08:36:21;21.60;78.50
48998;DHT22;34807;51.456;7.244;2022-08-19T08:38:46;21.60;78.30
48998;DHT22;34807;51.456;7.244;2022-08-19T08:43:48;21.70;78.10
48998;DHT22;34807;51.456;7.244;2022-08-19T08:46:57;21.80;78.30
48998;DHT22;34807;51.456;7.244;2022-08-19T08:51:46;21.90;78.80
48998;DHT22;34807;51.456;7.244;2022-08-19T08:54:14;21.90;79.20
48998;DHT22;34807;51.456;7.244;2022-08-19T08:56:41;21.90;77.90
48998;DHT22;34807;51.456;7.244;2022-08-19T08:59:30;22.00;78.80
48998;DHT22;34807;51.456;7.244;2022-08-19T09:01:53;22.00;78.80
48998;DHT22;34807;51.456;7.244;2022-08-19T09:04:19;22.10;78.70
48998;DHT22;34807;51.456;7.244;2022-08-19T09:12:04;22.30;79.20
48998;DHT22;34807;51.456;7.244;2022-08-19T09:16:57;22.40;78.30
48998;DHT22;34807;51.456;7.244;2022-08-19T09:19:23;22.50;77.90
48998;DHT22;34807;51.456;7.244;2022-08-19T09:21:48;22.50;77.90
48998;DHT22;34807;51.456;7.244;2022-08-19T09:24:15;22.60;77.40
48998;DHT22;34807;51.456;7.244;2022-08-19T09:26:41;22.60;77.20
48998;DHT22;34807;51.456;7.244;2022-08-19T09:29:09;22.70;77.20
48998;DHT22;34807;51.456;7.244;2022-08-19T09:31:35;22.80;77.70
48998;DHT22;34807;51.456;7.244;2022-08-19T09:34:01;22.90;77.30
48998;DHT22;34807;51.456;7.244;2022-08-19T09:36:28;22.90;77.00
48998;DHT22;34807;51.456;7.244;2022-08-19T09:38:58;23.00;76.90
48998;DHT22;34807;51.456;7.244;2022-08-19T09:41:26;23.00;77.30
48998;DHT22;34807;51.456;7.244;2022-08-19T09:43:53;23.10;76.40
48998;DHT22;34807;51.456;7.244;2022-08-19T09:46:21;23.30;76.60
48998;DHT22;34807;51.456;7.244;2022-08-19T09:48:47;23.30;75.50
48998;DHT22;34807;51.456;7.244;2022-08-19T09:51:15;23.30;76.00
48998;DHT22;34807;51.456;7.244;2022-08-19T09:53:41;23.40;75.80
48998;DHT22;34807;51.456;7.244;2022-08-19T09:56:07;23.50;75.70
48998;DHT22;34807;51.456;7.244;2022-08-19T09:58:33;23.50;75.70
48998;DHT22;34807;51.456;7.244;2022-08-19T10:00:59;23.50;75.30
48998;DHT22;34807;51.456;7.244;2022-08-19T10:03:26;23.60;75.70
48998;DHT22;34807;51.456;7.244;2022-08-19T10:05:52;23.60;75.30
48998;DHT22;34807;51.456;7.244;2022-08-19T10:08:28;23.60;75.20
48998;DHT22;34807;51.456;7.244;2022-08-19T10:10:54;23.70;75.60
48998;DHT22;34807;51.456;7.244;2022-08-19T10:13:21;23.70;75.00
48998;DHT22;34807;51.456;7.244;2022-08-19T10:15:51;23.70;75.10
48998;DHT22;34807;51.456;7.244;2022-08-19T10:18:18;23.90;75.00
48998;DHT22;34807;51.456;7.244;2022-08-19T10:20:44;23.90;74.70
48998;DHT22;34807;51.456;7.244;2022-08-19T10:23:11;23.90;74.60
48998;DHT22;34807;51.456;7.244;2022-08-19T10:25:36;24.00;74.70
48998;DHT22;34807;51.456;7.244;2022-08-19T10:28:03;24.00;74.60
48998;DHT22;34807;51.456;7.244;2022-08-19T10:30:29;24.00;74.70
48998;DHT22;34807;51.456;7.244;2022-08-19T10:32:55;24.10;74.40
48998;DHT22;34807;51.456;7.244;2022-08-19T10:35:20;24.10;74.10
48998;DHT22;34807;51.456;7.244;2022-08-19T10:37:45;24.20;73.80
48998;DHT22;34807;51.456;7.244;2022-08-19T10:40:11;24.30;73.80
48998;DHT22;34807;51.456;7.244;2022-08-19T10:42:37;24.40;73.50
48998;DHT22;34807;51.456;7.244;2022-08-19T10:45:03;24.40;73.20
48998;DHT22;34807;51.456;7.244;2022-08-19T10:47:31;24.40;73.20
48998;DHT22;34807;51.456;7.244;2022-08-19T10:49:57;24.50;73.20
48998;DHT22;34807;51.456;7.244;2022-08-19T10:52:45;24.50;73.40
48998;DHT22;34807;51.456;7.244;2022-08-19T10:55:11;24.50;73.30
48998;DHT22;34807;51.456;7.244;2022-08-19T10:57:55;24.60;73.20
48998;DHT22;34807;51.456;7.244;2022-08-19T11:00:22;24.60;73.00
48998;DHT22;34807;51.456;7.244;2022-08-19T11:02:48;24.70;72.70
48998;DHT22;34807;51.456;7.244;2022-08-19T11:05:14;24.70;72.70
48998;DHT22;34807;51.456;7.244;2022-08-19T11:07:40;24.80;72.80
48998;DHT22;34807;51.456;7.244;2022-08-19T11:10:06;24.90;72.30
48998;DHT22;34807;51.456;7.244;2022-08-19T11:12:32;25.00;72.00
48998;DHT22;34807;51.456;7.244;2022-08-19T11:14:58;25.10;71.70
48998;DHT22;34807;51.456;7.244;2022-08-19T11:17:23;25.10;71.80
48998;DHT22;34807;51.456;7.244;2022-08-19T11:19:49;25.10;72.00
48998;DHT22;34807;51.456;7.244;2022-08-19T11:22:15;25.10;72.10
48998;DHT22;34807;51.456;7.244;2022-08-19T11:24:41;25.00;72.30
48998;DHT22;34807;51.456;7.244;2022-08-19T11:27:07;25.10;72.20
48998;DHT22;34807;51.456;7.244;2022-08-19T11:29:34;25.10;72.30
48998;DHT22;34807;51.456;7.244;2022-08-19T11:32:02;25.10;72.20
48998;DHT22;34807;51.456;7.244;2022-08-19T11:34:28;25.10;72.30
48998;DHT22;34807;51.456;7.244;2022-08-19T11:36:55;25.10;72.30
48998;DHT22;34807;51.456;7.244;2022-08-19T11:39:24;25.20;72.20
48998;DHT22;34807;51.456;7.244;2022-08-19T11:41:50;25.20;72.10
48998;DHT22;34807;51.456;7.244;2022-08-19T11:44:15;25.20;72.00
48998;DHT22;34807;51.456;7.244;2022-08-19T11:46:41;25.20;71.80
48998;DHT22;34807;51.456;7.244;2022-08-19T11:49:10;25.30;71.90
48998;DHT22;34807;51.456;7.244;2022-08-19T11:51:36;25.30;71.60
48998;DHT22;34807;51.456;7.244;2022-08-19T11:54:04;25.50;71.10
48998;DHT22;34807;51.456;7.244;2022-08-19T11:56:29;25.60;70.70
48998;DHT22;34807;51.456;7.244;2022-08-19T11:58:55;25.70;70.50
48998;DHT22;34807;51.456;7.244;2022-08-19T12:01:24;25.90;69.90
48998;DHT22;34807;51.456;7.244;2022-08-19T12:03:51;25.90;69.90
48998;DHT22;34807;51.456;7.244;2022-08-19T12:06:18;26.00;69.80
48998;DHT22;34807;51.456;7.244;2022-08-19T12:08:45;26.10;70.90
48998;DHT22;34807;51.456;7.244;2022-08-19T12:11:11;26.10;70.30
48998;DHT22;34807;51.456;7.244;2022-08-19T12:13:37;26.20;70.00
48998;DHT22;34807;51.456;7.244;2022-08-19T12:16:11;26.20;70.40
48998;DHT22;34807;51.456;7.244;2022-08-19T12:18:38;26.20;70.20
48998;DHT22;34807;51.456;7.244;2022-08-19T12:21:04;26.20;70.60
48998;DHT22;34807;51.456;7.244;2022-08-19T12:23:29;26.20;70.60
48998;DHT22;34807;51.456;7.244;2022-08-19T12:25:56;26.30;70.00
48998;DHT22;34807;51.456;7.244;2022-08-19T12:28:23;26.40;70.20
48998;DHT22;34807;51.456;7.244;2022-08-19T12:30:49;26.40;69.80
48998;DHT22;34807;51.456;7.244;2022-08-19T12:33:16;26.50;69.40
48998;DHT22;34807;51.456;7.244;2022-08-19T12:35:43;26.60;69.60
48998;DHT22;34807;51.456;7.244;2022-08-19T12:38:09;26.70;69.60
48998;DHT22;34807;51.456;7.244;2022-08-19T12:40:35;26.70;69.30
48998;DHT22;34807;51.456;7.244;2022-08-19T12:43:01;26.80;69.20
48998;DHT22;34807;51.456;7.244;2022-08-19T12:45:26;26.90;69.20
48998;DHT22;34807;51.456;7.244;2022-08-19T12:47:52;26.90;69.00
48998;DHT22;34807;51.456;7.244;2022-08-19T12:50:18;27.00;68.60
48998;DHT22;34807;51.456;7.244;2022-08-19T12:52:44;27.00;68.10
48998;DHT22;34807;51.456;7.244;2022-08-19T12:55:10;27.00;68.60
48998;DHT22;34807;51.456;7.244;2022-08-19T12:57:36;26.90;68.60
48998;DHT22;34807;51.456;7.244;2022-08-19T13:00:07;26.90;69.00
48998;DHT22;34807;51.456;7.244;2022-08-19T13:02:37;27.00;69.30
48998;DHT22;34807;51.456;7.244;2022-08-19T13:05:03;27.10;69.20
48998;DHT22;34807;51.456;7.244;2022-08-19T13:07:31;27.10;69.10
48998;DHT22;34807;51.456;7.244;2022-08-19T13:09:56;27.20;69.10
48998;DHT22;34807;51.456;7.244;2022-08-19T13:12:22;27.20;68.90
48998;DHT22;34807;51.456;7.244;2022-08-19T13:14:52;27.30;68.50
48998;DHT22;34807;51.456;7.244;2022-08-19T13:17:20;27.40;68.40
48998;DHT22;34807;51.456;7.244;2022-08-19T13:19:45;27.40;68.00
48998;DHT22;34807;51.456;7.244;2022-08-19T13:22:11;27.50;67.80
48998;DHT22;34807;51.456;7.244;2022-08-19T13:24:37;27.50;68.30
48998;DHT22;34807;51.456;7.244;2022-08-19T13:27:03;27.60;68.00
48998;DHT22;34807;51.456;7.244;2022-08-19T13:29:28;27.70;68.10
48998;DHT22;34807;51.456;7.244;2022-08-19T13:32:12;27.70;67.80
48998;DHT22;34807;51.456;7.244;2022-08-19T13:34:56;27.80;68.10
48998;DHT22;34807;51.456;7.244;2022-08-19T13:37:22;27.80;67.20
48998;DHT22;34807;51.456;7.244;2022-08-19T13:40:19;27.80;67.60
48998;DHT22;34807;51.456;7.244;2022-08-19T13:42:46;27.90;66.90
48998;DHT22;34807;51.456;7.244;2022-08-19T13:45:13;28.00;66.80
48998;DHT22;34807;51.456;7.244;2022-08-19T13:47:39;28.00;67.00
48998;DHT22;34807;51.456;7.244;2022-08-19T13:50:09;28.10;67.40
48998;DHT22;34807;51.456;7.244;2022-08-19T13:52:34;28.20;66.90
48998;DHT22;34807;51.456;7.244;2022-08-19T13:55:00;28.20;66.50
48998;DHT22;34807;51.456;7.244;2022-08-19T13:57:25;28.20;67.00
48998;DHT22;34807;51.456;7.244;2022-08-19T13:59:51;28.30;66.20
48998;DHT22;34807;51.456;7.244;2022-08-19T14:02:16;28.40;65.90
48998;DHT22;34807;51.456;7.244;2022-08-19T14:04:42;28.40;65.50
48998;DHT22;34807;51.456;7.244;2022-08-19T14:07:07;28.40;65.70
48998;DHT22;34807;51.456;7.244;2022-08-19T14:09:34;28.50;64.00
48998;DHT22;34807;51.456;7.244;2022-08-19T14:12:00;28.50;64.60
48998;DHT22;34807;51.456;7.244;2022-08-19T14:14:25;28.50;64.40
48998;DHT22;34807;51.456;7.244;2022-08-19T14:16:51;28.50;63.30
48998;DHT22;34807;51.456;7.244;2022-08-19T14:19:17;28.60;65.70
48998;DHT22;34807;51.456;7.244;2022-08-19T14:21:42;28.60;64.00
48998;DHT22;34807;51.456;7.244;2022-08-19T14:24:08;28.70;64.40
48998;DHT22;34807;51.456;7.244;2022-08-19T14:26:33;28.70;64.90
48998;DHT22;34807;51.456;7.244;2022-08-19T14:28:59;28.70;64.60
48998;DHT22;34807;51.456;7.244;2022-08-19T14:31:24;28.80;64.00
48998;DHT22;34807;51.456;7.244;2022-08-19T14:33:51;28.80;63.40
48998;DHT22;34807;51.456;7.244;2022-08-19T14:36:17;28.90;62.40
48998;DHT22;34807;51.456;7.244;2022-08-19T14:38:43;29.00;62.80
48998;DHT22;34807;51.456;7.244;2022-08-19T14:41:19;29.00;62.90
48998;DHT22;34807;51.456;7.244;2022-08-19T14:43:46;28.90;62.30
48998;DHT22;34807;51.456;7.244;2022-08-19T14:46:13;28.90;62.70
48998;DHT22;34807;51.456;7.244;2022-08-19T14:48:40;28.80;61.70
48998;DHT22;34807;51.456;7.244;2022-08-19T14:51:05;28.70;62.50
48998;DHT22;34807;51.456;7.244;2022-08-19T14:53:31;28.70;63.40
48998;DHT22;34807;51.456;7.244;2022-08-19T14:55:58;28.60;63.60
48998;DHT22;34807;51.456;7.244;2022-08-19T14:58:24;28.60;63.70
48998;DHT22;34807;51.456;7.244;2022-08-19T15:00:49;28.70;61.90
48998;DHT22;34807;51.456;7.244;2022-08-19T15:03:15;28.70;62.20
48998;DHT22;34807;51.456;7.244;2022-08-19T15:05:41;28.70;62.20
48998;DHT22;34807;51.456;7.244;2022-08-19T15:08:06;28.60;62.10
48998;DHT22;34807;51.456;7.244;2022-08-19T15:10:31;28.50;61.60
48998;DHT22;34807;51.456;7.244;2022-08-19T15:12:57;28.50;62.40
48998;DHT22;34807;51.456;7.244;2022-08-19T15:15:23;28.50;62.40
48998;DHT22;34807;51.456;7.244;2022-08-19T15:17:49;28.40;61.70
48998;DHT22;34807;51.456;7.244;2022-08-19T15:20:16;28.40;61.70
48998;DHT22;34807;51.456;7.244;2022-08-19T15:22:42;28.30;61.90
48998;DHT22;34807;51.456;7.244;2022-08-19T15:25:08;28.20;61.90
48998;DHT22;34807;51.456;7.244;2022-08-19T15:27:34;28.20;62.40
48998;DHT22;34807;51.456;7.244;2022-08-19T15:30:01;28.30;62.10
48998;DHT22;34807;51.456;7.244;2022-08-19T15:32:27;28.60;61.00
48998;DHT22;34807;51.456;7.244;2022-08-19T15:34:53;28.90;59.90
48998;DHT22;34807;51.456;7.244;2022-08-19T15:37:19;28.80;60.90
48998;DHT22;34807;51.456;7.244;2022-08-19T15:39:46;28.70;60.90
48998;DHT22;34807;51.456;7.244;2022-08-19T15:42:11;28.60;60.50
48998;DHT22;34807;51.456;7.244;2022-08-19T15:44:37;28.50;60.80